Skip Navigation Links
NOAA logo - Click to go to the NOAA homepage
NOAA's National Weather Service
Alaska Aviation Weather Unit
  NWS logo - Click to go to the NWS homepage
Left Navbar Graphic     02 AKDT = 10 GMT

   
NOAA is celebrating 200 years of science, service, and stewardship. Visit the NOAA 200th celebration Web site to learn more.
USA.gov is the U.S. Government's official Web portal to all Federal, state and local government Web resources and services.
Facebook
NWS on Facebook

AAWU Home :: Display TAF Add Bookmark
TESTM WHMA2 270420Z AUTO 00000KT 10SM  BKN050 01/M06 A2958 RMK A02 SLP017 T00071064

TESTM WHMA2 270450Z AUTO 00000KT 10SM  BKN050 01/M06 A2958 RMK A02 SLP016 T00061057

TESTM WHMA2 270520Z AUTO 00000KT 10SM  BKN050 00/M05 A2957 RMK A02 SLP014 T00041052

TESTM WHMA2 270550Z AUTO 2204KT 10SM  FEW050 00/M08 A2957 RMK A02 SLP012 T00001081

TESTM WHMA2 270620Z AUTO 00000KT 10SM  BKN049 M00/M06 A2956 RMK A02 SLP011 T10021060

TESTM WHMA2 270650Z AUTO 1102KT 10SM  SCT047 M00/M06 A2956 RMK A02 SLP009 T10031058

TESTM WHMA2 270720Z AUTO 2705KT 10SM  SCT070 M01/M08 A2955 RMK A02 SLP008 T10081078

TESTM WHMA2 270750Z AUTO 00000KT 10SM  BKN055 M01/M06 A2955 RMK A02 SLP007 T10111062

TESTM WHMA2 270820Z AUTO 00000KT 10SM  BKN055 M01/M06 A2954 RMK A02 SLP004 T10111063

TESTM WHMA2 270850Z AUTO 00000KT 10SM  BKN050 M01/M07 A2954 RMK A02 SLP002 T10101067

TESTM WHMA2 270920Z AUTO 00000KT 10SM  BKN075 M01/M07 A2953 RMK A02 SLP001 T10091070

TESTM WHMA2 270950Z AUTO 00000KT 10SM  BKN075 M01/M06 A2952 RMK A02 SLP997 T10061058

TESTM WHMA2 271020Z AUTO 00000KT 10SM  BKN080 M01/M07 A2951 RMK A02 SLP994 T10101068


NOAA's National Weather Service
Alaska Aviation Weather Unit
6930 Sand Lake Road
Anchorage, AK 99502-1845
Disclaimer
Credits
Glossary
Privacy Policy
About Us
Career Opportunities
Contact AAWU Internet Services Site last modified: April, 17th 2012